createdAt,value
2024-01-18T00:00:24.368Z,20.65
2024-01-18T00:02:51.056Z,19.88
2024-01-18T00:05:17.993Z,20.45
2024-01-18T00:07:44.634Z,21.95
2024-01-18T00:10:11.867Z,20.85
2024-01-18T00:12:39.983Z,20.73
2024-01-18T00:15:07.881Z,21.40
2024-01-18T00:17:34.878Z,22.02
2024-01-18T00:20:01.820Z,23.65
2024-01-18T00:22:28.585Z,18.30
2024-01-18T00:24:55.256Z,20.50
2024-01-18T00:27:22.005Z,19.95
2024-01-18T00:29:48.655Z,19.00
2024-01-18T00:32:15.292Z,17.80
2024-01-18T00:34:41.975Z,20.67
2024-01-18T00:37:08.667Z,20.17
2024-01-18T00:39:41.050Z,18.73
2024-01-18T00:42:08.437Z,20.85
2024-01-18T00:44:35.342Z,20.20
2024-01-18T00:47:02.048Z,20.50
2024-01-18T00:49:28.888Z,20.67
2024-01-18T00:51:55.686Z,19.10
2024-01-18T00:54:22.395Z,19.55
2024-01-18T00:56:49.049Z,16.63
2024-01-18T00:59:15.674Z,15.63
2024-01-18T01:01:42.541Z,18.85
2024-01-18T01:04:09.296Z,19.63
2024-01-18T01:06:36.065Z,16.15
2024-01-18T01:09:02.880Z,18.80
2024-01-18T01:11:29.557Z,16.90
2024-01-18T01:13:56.256Z,17.58
2024-01-18T01:16:23.104Z,17.48
2024-01-18T01:18:49.880Z,22.48
2024-01-18T01:21:16.718Z,17.83
2024-01-18T01:23:49.861Z,23.75
2024-01-18T01:26:16.975Z,17.48
2024-01-18T01:28:44.134Z,17.10
2024-01-18T01:31:11.102Z,15.65
2024-01-18T01:33:37.994Z,16.52
2024-01-18T01:36:06.293Z,17.00
2024-01-18T01:38:33.150Z,17.70
2024-01-18T01:41:00.635Z,15.15
2024-01-18T01:43:28.886Z,17.42
2024-01-18T01:45:55.800Z,17.77
2024-01-18T01:48:22.825Z,16.25
2024-01-18T01:50:49.768Z,16.42
2024-01-18T01:53:19.272Z,17.83
2024-01-18T01:55:47.243Z,16.65
2024-01-18T01:58:16.712Z,15.68
2024-01-18T02:00:44.334Z,17.40
2024-01-18T02:03:11.416Z,15.25
2024-01-18T02:05:38.391Z,16.20
2024-01-18T02:08:05.708Z,17.92
2024-01-18T02:10:32.550Z,16.23
2024-01-18T02:13:00.593Z,14.38
2024-01-18T02:15:27.370Z,13.23
2024-01-18T02:17:54.697Z,12.50
2024-01-18T02:20:21.450Z,15.68
2024-01-18T02:22:49.781Z,14.45
2024-01-18T02:25:19.753Z,16.75
2024-01-18T02:27:46.607Z,14.10
2024-01-18T02:30:13.699Z,15.02
2024-01-18T02:32:40.615Z,14.02
2024-01-18T02:35:07.567Z,15.40
2024-01-18T02:37:34.903Z,14.52
2024-01-18T02:40:02.061Z,14.60
2024-01-18T02:42:28.928Z,16.50
2024-01-18T02:44:57.822Z,10.98
2024-01-18T02:47:26.138Z,13.98
2024-01-18T02:49:52.939Z,16.15
2024-01-18T02:52:19.905Z,13.40
2024-01-18T02:54:46.696Z,11.68
2024-01-18T02:57:13.617Z,12.35
2024-01-18T02:59:40.377Z,15.10
2024-01-18T03:02:07.051Z,16.35
2024-01-18T03:04:34.068Z,12.55
2024-01-18T03:07:00.825Z,13.80
2024-01-18T03:09:27.634Z,15.10
2024-01-18T03:11:54.491Z,12.40
2024-01-18T03:14:21.753Z,12.27
2024-01-18T03:16:48.588Z,16.67
2024-01-18T03:19:15.337Z,13.20
2024-01-18T03:21:42.184Z,16.77
2024-01-18T03:24:09.373Z,11.63
2024-01-18T03:26:36.272Z,13.13
2024-01-18T03:29:02.952Z,12.38
2024-01-18T03:31:29.705Z,14.80
2024-01-18T03:33:56.566Z,13.18
2024-01-18T03:36:23.369Z,16.58
2024-01-18T03:38:50.048Z,12.20
2024-01-18T03:41:16.849Z,12.55
2024-01-18T03:43:43.590Z,14.95
2024-01-18T03:46:16.675Z,12.32
2024-01-18T03:48:43.700Z,10.02
2024-01-18T03:51:10.650Z,13.52
2024-01-18T03:53:42.524Z,11.65
2024-01-18T03:56:09.250Z,12.45
2024-01-18T03:58:38.121Z,10.65
2024-01-18T04:01:05.209Z,8.57
2024-01-18T04:03:32.138Z,12.05
2024-01-18T04:05:58.991Z,12.30
2024-01-18T04:08:25.906Z,14.88
2024-01-18T04:10:52.672Z,10.00
2024-01-18T04:13:20.131Z,12.07
2024-01-18T04:15:47.064Z,10.93
2024-01-18T04:18:13.928Z,9.30
2024-01-18T04:20:40.785Z,11.45
2024-01-18T04:23:07.503Z,6.55
2024-01-18T04:25:34.173Z,10.73
2024-01-18T04:28:01.100Z,10.68
2024-01-18T04:30:27.953Z,12.15
2024-01-18T04:32:54.778Z,9.52
2024-01-18T04:35:21.567Z,8.65
2024-01-18T04:37:48.330Z,11.07
2024-01-18T04:40:15.102Z,9.75
2024-01-18T04:42:41.797Z,8.15
2024-01-18T04:45:08.973Z,9.50
2024-01-18T04:47:35.786Z,9.10
2024-01-18T04:50:04.812Z,8.60
2024-01-18T04:52:31.672Z,10.75
2024-01-18T04:55:00.257Z,8.50
2024-01-18T04:57:27.760Z,9.13
2024-01-18T04:59:54.547Z,8.73
2024-01-18T05:02:21.290Z,10.07
2024-01-18T05:04:48.193Z,11.25
2024-01-18T05:07:15.092Z,6.80
2024-01-18T05:09:41.970Z,8.75
2024-01-18T05:12:10.979Z,7.32
2024-01-18T05:14:39.200Z,12.20
2024-01-18T05:17:11.710Z,8.40
2024-01-18T05:19:38.767Z,9.13
2024-01-18T05:22:05.520Z,7.97
2024-01-18T05:24:32.311Z,7.18
2024-01-18T05:26:59.260Z,7.80
2024-01-18T05:29:26.003Z,9.80
2024-01-18T05:31:52.947Z,8.18
2024-01-18T05:34:20.295Z,10.27
2024-01-18T05:36:47.400Z,8.90
2024-01-18T05:39:14.352Z,7.28
2024-01-18T05:41:41.144Z,10.32
2024-01-18T05:44:07.814Z,12.10
2024-01-18T05:46:34.505Z,8.48
2024-01-18T05:49:02.455Z,11.82
2024-01-18T05:51:29.832Z,8.60
2024-01-18T05:53:56.709Z,10.38
2024-01-18T05:56:23.574Z,9.75
2024-01-18T05:58:50.472Z,11.55
2024-01-18T06:01:17.633Z,8.20
2024-01-18T06:03:44.694Z,6.95
2024-01-18T06:06:12.346Z,6.40
2024-01-18T06:08:39.024Z,8.95
2024-01-18T06:11:05.645Z,6.88
2024-01-18T06:13:32.408Z,9.43
2024-01-18T06:15:59.912Z,8.75
2024-01-18T06:18:26.753Z,8.52
2024-01-18T06:20:53.510Z,6.90
2024-01-18T06:23:20.182Z,9.70
2024-01-18T06:25:46.831Z,8.60
2024-01-18T06:28:13.614Z,12.10
2024-01-18T06:30:44.954Z,15.07
2024-01-18T06:33:12.888Z,15.15
2024-01-18T06:35:39.785Z,9.13
2024-01-18T06:38:06.550Z,8.45
2024-01-18T06:40:33.191Z,7.45
2024-01-18T06:42:59.918Z,9.50
2024-01-18T06:45:26.747Z,8.38
2024-01-18T06:47:53.508Z,7.32
2024-01-18T06:50:20.325Z,8.68
2024-01-18T06:52:47.103Z,8.80
2024-01-18T06:55:13.887Z,7.57
2024-01-18T06:57:40.808Z,9.02
2024-01-18T07:00:08.464Z,9.63
2024-01-18T07:02:35.299Z,12.70
2024-01-18T07:05:04.741Z,7.72
2024-01-18T07:07:31.573Z,8.13
2024-01-18T07:09:58.409Z,9.38
2024-01-18T07:12:26.204Z,5.35
2024-01-18T07:14:53.719Z,8.95
2024-01-18T07:17:20.691Z,8.63
2024-01-18T07:19:47.374Z,8.13
2024-01-18T07:22:14.100Z,6.97
2024-01-18T07:24:40.963Z,13.27
2024-01-18T07:27:10.712Z,7.72
2024-01-18T07:29:38.041Z,7.47
2024-01-18T07:32:05.238Z,8.82
2024-01-18T07:34:34.554Z,7.10
2024-01-18T07:37:01.424Z,13.77
2024-01-18T07:39:29.151Z,5.88
2024-01-18T07:41:56.194Z,6.97
2024-01-18T07:44:22.884Z,5.95
2024-01-18T07:46:50.295Z,5.82
2024-01-18T07:49:17.089Z,7.47
2024-01-18T07:51:44.842Z,7.90
2024-01-18T07:54:11.713Z,8.18
2024-01-18T07:56:38.432Z,10.60
2024-01-18T07:59:05.103Z,7.15
2024-01-18T08:01:35.661Z,7.78
2024-01-18T08:04:06.943Z,10.30
2024-01-18T08:06:34.104Z,8.63
2024-01-18T08:09:01.016Z,11.60
2024-01-18T08:11:27.711Z,9.02
2024-01-18T08:13:54.441Z,7.75
2024-01-18T08:16:21.212Z,9.68
2024-01-18T08:18:48.121Z,6.53
2024-01-18T08:21:15.048Z,8.90
2024-01-18T08:23:41.995Z,8.60
2024-01-18T08:26:09.238Z,7.28
2024-01-18T08:28:36.066Z,10.13
2024-01-18T08:31:02.845Z,7.63
2024-01-18T08:33:29.655Z,9.82
2024-01-18T08:35:58.734Z,8.77
2024-01-18T08:38:25.512Z,8.20
2024-01-18T08:40:52.237Z,6.85
2024-01-18T08:43:23.285Z,7.47
2024-01-18T08:45:50.082Z,9.63
2024-01-18T08:48:17.561Z,7.22
2024-01-18T08:50:44.332Z,6.25
2024-01-18T08:53:10.998Z,9.55
2024-01-18T08:55:39.600Z,7.75
2024-01-18T08:58:08.655Z,7.97
2024-01-18T09:00:36.055Z,11.55
2024-01-18T09:03:03.055Z,6.72
2024-01-18T09:05:29.830Z,10.05
2024-01-18T09:07:58.529Z,14.95
2024-01-18T09:10:25.759Z,10.15
2024-01-18T09:12:52.530Z,14.15
2024-01-18T09:15:19.290Z,8.55
2024-01-18T09:17:45.991Z,9.73
2024-01-18T09:20:12.740Z,8.73
2024-01-18T09:22:40.983Z,10.93
2024-01-18T09:25:08.983Z,5.90
2024-01-18T09:27:35.784Z,7.68
2024-01-18T09:30:03.464Z,5.35
2024-01-18T09:32:30.199Z,20.52
2024-01-18T09:34:56.971Z,10.95
2024-01-18T09:37:23.727Z,10.32
2024-01-18T09:39:50.540Z,9.18
2024-01-18T09:42:18.564Z,13.07
2024-01-18T09:44:49.048Z,17.48
2024-01-18T09:47:19.263Z,12.15
2024-01-18T09:49:47.397Z,16.95
2024-01-18T09:52:14.564Z,10.98
2024-01-18T09:54:43.881Z,12.30
2024-01-18T09:57:16.793Z,10.43
2024-01-18T09:59:45.285Z,10.48
2024-01-18T10:02:14.027Z,9.43
2024-01-18T10:04:42.596Z,7.32
2024-01-18T10:07:09.976Z,8.50
2024-01-18T10:09:37.289Z,9.73
2024-01-18T10:12:04.416Z,6.10
2024-01-18T10:14:43.506Z,7.40
2024-01-18T10:17:19.695Z,5.05
2024-01-18T10:19:46.452Z,7.90
2024-01-18T10:22:13.174Z,7.88
2024-01-18T10:24:42.054Z,7.85
2024-01-18T10:27:08.962Z,10.75
2024-01-18T10:29:38.714Z,9.65
2024-01-18T10:32:08.233Z,7.50
2024-01-18T10:34:38.885Z,6.30
2024-01-18T10:37:07.007Z,7.72
2024-01-18T10:39:41.088Z,7.90
2024-01-18T10:42:12.039Z,4.40
2024-01-18T10:44:42.877Z,5.05
2024-01-18T10:47:14.514Z,4.88
2024-01-18T10:49:42.071Z,4.90
2024-01-18T10:52:10.646Z,4.80
2024-01-18T10:54:40.391Z,4.47
2024-01-18T10:57:11.481Z,4.55
2024-01-18T10:59:38.295Z,7.68
2024-01-18T11:02:05.896Z,8.43
2024-01-18T11:04:32.788Z,4.07
2024-01-18T11:07:00.215Z,5.38
2024-01-18T11:09:28.999Z,4.00
2024-01-18T11:11:57.715Z,4.40
2024-01-18T11:14:26.775Z,3.47
2024-01-18T11:16:53.488Z,5.97
2024-01-18T11:19:42.969Z,5.43
2024-01-18T11:22:26.663Z,4.22
2024-01-18T11:24:54.151Z,4.50
2024-01-18T11:27:22.933Z,2.72
2024-01-18T11:29:50.770Z,6.22
2024-01-18T11:32:21.882Z,2.10
2024-01-18T11:34:50.795Z,3.63
2024-01-18T11:37:20.339Z,2.45
2024-01-18T11:39:53.209Z,3.63
2024-01-18T11:42:22.344Z,14.18
2024-01-18T11:45:10.698Z,6.32
2024-01-18T11:47:40.675Z,2.97
2024-01-18T11:50:10.446Z,2.92
2024-01-18T11:52:42.333Z,3.90
2024-01-18T11:55:12.259Z,4.28
2024-01-18T11:57:39.188Z,1.45
2024-01-18T12:00:06.461Z,2.78
2024-01-18T12:02:33.301Z,1.95
2024-01-18T12:05:00.156Z,3.63
2024-01-18T12:07:27.917Z,4.00
2024-01-18T12:09:54.947Z,3.03
2024-01-18T12:12:22.046Z,3.85
2024-01-18T12:14:49.607Z,3.63
2024-01-18T12:17:17.397Z,3.05
2024-01-18T12:19:47.454Z,2.13
2024-01-18T12:22:19.364Z,2.50
2024-01-18T12:24:49.954Z,3.20
2024-01-18T12:27:17.536Z,1.30
2024-01-18T12:29:44.947Z,4.05
2024-01-18T12:32:12.282Z,1.95
2024-01-18T12:34:40.247Z,3.53
2024-01-18T12:37:07.004Z,4.30
2024-01-18T12:39:36.855Z,3.15
2024-01-18T12:42:03.995Z,3.10
2024-01-18T12:44:31.050Z,3.30
2024-01-18T12:47:01.893Z,3.10
2024-01-18T12:49:31.036Z,5.03
2024-01-18T12:51:59.758Z,1.50
2024-01-18T12:54:30.057Z,1.90
2024-01-18T12:56:58.677Z,5.47
2024-01-18T12:59:26.739Z,1.88
2024-01-18T13:01:54.354Z,2.97
2024-01-18T13:04:29.499Z,3.67
2024-01-18T13:07:02.935Z,3.28
2024-01-18T13:09:33.220Z,2.28
2024-01-18T13:12:05.761Z,2.38
2024-01-18T13:14:36.293Z,3.03
2024-01-18T13:17:03.519Z,4.13
2024-01-18T13:19:30.601Z,5.40
2024-01-18T13:21:57.815Z,2.40
2024-01-18T13:24:24.745Z,4.45
2024-01-18T13:26:51.934Z,3.67
2024-01-18T13:29:18.903Z,3.40
2024-01-18T13:31:46.238Z,2.28
2024-01-18T13:34:13.428Z,3.90
2024-01-18T13:36:40.570Z,2.20
2024-01-18T13:39:08.982Z,3.15
2024-01-18T13:41:35.817Z,4.82
2024-01-18T13:44:04.403Z,1.20
2024-01-18T13:46:32.566Z,2.63
2024-01-18T13:48:59.512Z,2.00
2024-01-18T13:51:26.394Z,4.13
2024-01-18T13:53:53.245Z,4.22
2024-01-18T13:56:21.793Z,3.42
2024-01-18T13:58:49.058Z,2.92
2024-01-18T14:01:16.014Z,3.83
2024-01-18T14:03:45.474Z,1.65
2024-01-18T14:06:20.907Z,2.25
2024-01-18T14:08:48.470Z,2.17
2024-01-18T14:11:16.681Z,3.05
2024-01-18T14:13:44.691Z,2.75
2024-01-18T14:16:14.997Z,2.05
2024-01-18T14:18:42.724Z,3.78
2024-01-18T14:21:09.738Z,3.25
2024-01-18T14:23:37.162Z,4.43
2024-01-18T14:26:04.801Z,3.25
2024-01-18T14:28:32.359Z,4.78
2024-01-18T14:30:59.373Z,3.78
2024-01-18T14:33:26.424Z,2.22
2024-01-18T14:35:53.277Z,4.15
2024-01-18T14:38:20.151Z,2.88
2024-01-18T14:40:48.889Z,2.38
2024-01-18T14:43:16.309Z,4.18
2024-01-18T14:45:43.688Z,3.10
2024-01-18T14:48:15.394Z,3.13
2024-01-18T14:50:45.799Z,5.10
2024-01-18T14:53:14.366Z,4.65
2024-01-18T14:55:41.908Z,5.00
2024-01-18T14:58:08.710Z,4.90
2024-01-18T15:00:37.598Z,1.33
2024-01-18T15:03:05.760Z,1.83
2024-01-18T15:05:33.175Z,1.65
2024-01-18T15:08:00.403Z,1.85
2024-01-18T15:10:27.204Z,2.90
2024-01-18T15:12:53.925Z,1.77
2024-01-18T15:15:20.814Z,4.25
2024-01-18T15:17:49.601Z,4.65
2024-01-18T15:20:17.647Z,6.53
2024-01-18T15:22:44.526Z,2.95
2024-01-18T15:25:11.423Z,2.20
2024-01-18T15:27:39.018Z,1.35
2024-01-18T15:30:06.493Z,3.47
2024-01-18T15:32:34.925Z,5.45
2024-01-18T15:35:02.343Z,1.63
2024-01-18T15:37:30.027Z,5.60
2024-01-18T15:39:57.423Z,3.88
2024-01-18T15:42:24.336Z,4.07
2024-01-18T15:44:51.184Z,5.13
2024-01-18T15:47:17.996Z,4.00
2024-01-18T15:49:45.068Z,3.58
2024-01-18T15:52:12.283Z,2.67
2024-01-18T15:54:39.185Z,4.63
2024-01-18T15:57:06.952Z,3.42
2024-01-18T15:59:33.775Z,2.42
2024-01-18T16:02:00.809Z,6.07
2024-01-18T16:04:27.802Z,5.15
2024-01-18T16:06:54.818Z,3.85
2024-01-18T16:09:21.951Z,5.25
2024-01-18T16:11:48.820Z,6.57
2024-01-18T16:14:15.533Z,3.60
2024-01-18T16:16:42.272Z,4.25
2024-01-18T16:19:09.088Z,7.55
2024-01-18T16:21:35.997Z,4.93
2024-01-18T16:24:03.347Z,5.10
2024-01-18T16:26:30.342Z,4.20
2024-01-18T16:28:57.485Z,4.68
2024-01-18T16:31:24.698Z,5.03
2024-01-18T16:33:51.830Z,6.93
2024-01-18T16:36:18.694Z,7.53
2024-01-18T16:38:45.388Z,6.90
2024-01-18T16:41:12.041Z,3.85
2024-01-18T16:43:39.238Z,7.55
2024-01-18T16:46:06.452Z,7.07
2024-01-18T16:48:33.472Z,8.40
2024-01-18T16:51:01.287Z,5.88
2024-01-18T16:53:28.068Z,9.00
2024-01-18T16:55:54.747Z,10.00
2024-01-18T16:58:21.510Z,7.38
2024-01-18T17:00:49.710Z,9.40
2024-01-18T17:03:16.739Z,8.77
2024-01-18T17:05:43.553Z,13.43
2024-01-18T17:08:10.424Z,17.00
2024-01-18T17:10:37.205Z,11.15
2024-01-18T17:13:04.068Z,9.70
2024-01-18T17:15:32.248Z,10.82
2024-01-18T17:17:59.102Z,12.80
2024-01-18T17:20:25.962Z,9.02
2024-01-18T17:22:52.748Z,12.68
2024-01-18T17:25:19.511Z,10.45
2024-01-18T17:27:46.190Z,10.65
2024-01-18T17:30:14.424Z,11.40
2024-01-18T17:32:41.571Z,11.18
2024-01-18T17:35:10.056Z,8.80
2024-01-18T17:37:36.715Z,11.20
2024-01-18T17:40:03.633Z,15.05
2024-01-18T17:42:33.788Z,19.65
2024-01-18T17:45:00.496Z,24.38
2024-01-18T17:47:27.308Z,21.42
2024-01-18T17:49:54.146Z,23.73
2024-01-18T17:52:20.826Z,18.35
2024-01-18T17:54:47.558Z,16.90
2024-01-18T17:57:14.666Z,15.88
2024-01-18T17:59:41.581Z,16.95
2024-01-18T18:02:09.188Z,16.95
2024-01-18T18:04:36.346Z,15.30
2024-01-18T18:07:03.048Z,15.55
2024-01-18T18:09:30.366Z,19.92
2024-01-18T18:11:57.068Z,16.40
2024-01-18T18:14:24.030Z,16.80
2024-01-18T18:16:50.836Z,15.98
2024-01-18T18:19:17.554Z,12.63
2024-01-18T18:21:44.304Z,16.52
2024-01-18T18:24:11.336Z,15.27
2024-01-18T18:26:38.131Z,15.40
2024-01-18T18:29:04.855Z,14.48
2024-01-18T18:31:31.984Z,17.10
2024-01-18T18:34:01.255Z,19.52
2024-01-18T18:36:32.750Z,12.77
2024-01-18T18:38:59.426Z,14.70
2024-01-18T18:41:26.703Z,10.27
2024-01-18T18:43:53.420Z,8.75
2024-01-18T18:46:20.082Z,9.20
2024-01-18T18:48:47.644Z,10.05
2024-01-18T18:51:14.419Z,12.80
2024-01-18T18:53:41.134Z,10.73
2024-01-18T18:56:07.894Z,11.43
2024-01-18T18:58:34.650Z,10.95
2024-01-18T19:01:04.208Z,16.70
2024-01-18T19:03:31.146Z,10.82
2024-01-18T19:05:59.030Z,10.73
2024-01-18T19:08:26.162Z,11.63
2024-01-18T19:10:55.879Z,12.43
2024-01-18T19:13:25.392Z,14.07
2024-01-18T19:15:53.130Z,16.38
2024-01-18T19:18:20.039Z,14.15
2024-01-18T19:20:46.803Z,13.25
2024-01-18T19:23:13.990Z,13.38
2024-01-18T19:25:40.852Z,14.13
2024-01-18T19:28:07.545Z,10.60
2024-01-18T19:30:34.219Z,13.77
2024-01-18T19:33:01.017Z,14.80
2024-01-18T19:35:27.844Z,15.27
2024-01-18T19:37:55.260Z,15.88
2024-01-18T19:40:21.994Z,12.23
2024-01-18T19:42:48.744Z,13.32
2024-01-18T19:45:15.642Z,13.27
2024-01-18T19:47:42.354Z,11.98
2024-01-18T19:50:09.549Z,13.05
2024-01-18T19:52:37.867Z,15.05
2024-01-18T19:55:05.101Z,17.50
2024-01-18T19:57:32.326Z,14.05
2024-01-18T19:59:59.280Z,13.95
2024-01-18T20:02:26.080Z,15.57
2024-01-18T20:04:52.793Z,13.32
2024-01-18T20:07:19.559Z,18.33
2024-01-18T20:09:46.318Z,17.42
2024-01-18T20:12:13.004Z,14.88
2024-01-18T20:14:39.744Z,19.10
2024-01-18T20:17:06.405Z,18.70
2024-01-18T20:19:33.060Z,15.43
2024-01-18T20:21:59.718Z,15.40
2024-01-18T20:24:28.424Z,17.23
2024-01-18T20:26:55.540Z,12.65
2024-01-18T20:29:22.508Z,22.95
2024-01-18T20:31:50.204Z,15.52
2024-01-18T20:34:17.045Z,12.07
2024-01-18T20:36:44.153Z,13.80
2024-01-18T20:39:10.999Z,11.18
2024-01-18T20:41:37.798Z,15.75
2024-01-18T20:44:04.715Z,11.77
2024-01-18T20:46:33.346Z,12.85
2024-01-18T20:49:00.321Z,12.10
2024-01-18T20:51:27.246Z,12.75
2024-01-18T20:53:54.247Z,7.93
2024-01-18T20:56:21.196Z,9.45
2024-01-18T20:58:51.065Z,7.68
2024-01-18T21:01:18.166Z,7.90
2024-01-18T21:03:45.042Z,8.10
2024-01-18T21:06:11.875Z,9.80
2024-01-18T21:08:38.741Z,7.40
2024-01-18T21:11:05.981Z,11.30
2024-01-18T21:13:33.204Z,7.00
2024-01-18T21:16:00.078Z,14.55
2024-01-18T21:18:26.815Z,9.20
2024-01-18T21:20:53.704Z,12.63
2024-01-18T21:23:20.531Z,18.77
2024-01-18T21:25:47.321Z,15.77
2024-01-18T21:28:14.404Z,14.70
2024-01-18T21:30:41.120Z,13.77
2024-01-18T21:33:10.947Z,11.60
2024-01-18T21:35:38.996Z,11.65
2024-01-18T21:38:06.312Z,10.95
2024-01-18T21:40:32.989Z,9.77
2024-01-18T21:43:00.095Z,13.93
2024-01-18T21:45:26.897Z,10.95
2024-01-18T21:47:56.913Z,10.18
2024-01-18T21:50:25.548Z,11.27
2024-01-18T21:52:52.593Z,12.73
2024-01-18T21:55:19.313Z,11.80
2024-01-18T21:57:46.102Z,10.68
2024-01-18T22:00:14.354Z,9.57
2024-01-18T22:02:41.817Z,11.40
2024-01-18T22:05:09.519Z,12.30
2024-01-18T22:07:36.604Z,15.98
2024-01-18T22:10:03.553Z,12.82
2024-01-18T22:12:30.243Z,14.45
2024-01-18T22:14:56.974Z,15.65
2024-01-18T22:17:23.672Z,13.32
2024-01-18T22:19:58.413Z,12.73
2024-01-18T22:22:31.213Z,13.57
2024-01-18T22:24:59.132Z,13.98
2024-01-18T22:27:27.653Z,13.43
2024-01-18T22:29:54.686Z,15.00
2024-01-18T22:32:21.595Z,14.30
2024-01-18T22:34:52.006Z,14.55
2024-01-18T22:37:19.763Z,13.30
2024-01-18T22:39:46.451Z,15.57
2024-01-18T22:42:13.203Z,15.77
2024-01-18T22:44:40.083Z,10.70
2024-01-18T22:47:07.187Z,11.45
2024-01-18T22:49:34.726Z,12.75
2024-01-18T22:52:01.512Z,14.63
2024-01-18T22:54:29.159Z,9.55
2024-01-18T22:56:56.406Z,8.48
2024-01-18T22:59:23.173Z,7.57
2024-01-18T23:01:49.858Z,11.88
2024-01-18T23:04:16.561Z,9.30
2024-01-18T23:06:43.296Z,11.27
2024-01-18T23:09:11.466Z,9.10
2024-01-18T23:11:38.261Z,9.90
2024-01-18T23:14:05.072Z,7.28
2024-01-18T23:16:31.758Z,13.93
2024-01-18T23:18:58.523Z,9.40
2024-01-18T23:21:25.240Z,8.18
2024-01-18T23:23:52.598Z,10.07
2024-01-18T23:26:19.416Z,7.55
2024-01-18T23:28:46.157Z,7.03
2024-01-18T23:31:12.870Z,8.25
2024-01-18T23:33:39.600Z,9.32
2024-01-18T23:36:06.659Z,6.00
2024-01-18T23:38:33.410Z,6.38
2024-01-18T23:41:00.229Z,6.25
2024-01-18T23:43:26.938Z,6.00
2024-01-18T23:45:53.707Z,9.93
2024-01-18T23:48:20.499Z,4.50
2024-01-18T23:50:47.367Z,8.40
2024-01-18T23:53:14.302Z,4.25
2024-01-18T23:55:41.011Z,6.45
2024-01-18T23:58:07.745Z,5.30
